Weather at Woodley 2 Airport

Public forecast

Using degrees Fahrenheit for public forecast. Weather courtesy of forecast.io.

Closest aviation weather report (METAR) to Woodley 2 Airport

Closest report is Whiteside County Airport-Joseph H Bittorf Field, 13.3 nm (24.6 km) N. Retrieved 2021/08/02 12:56 UTC (12 minutes ago):

KSQI 021256Z 00000KT 8SM CLR 17/16 A3020 RMK AO2 SLP091 T01720161

Closest aviation forecast (TAF) to Woodley 2 Airport

Closest forecast is Quad City International Airport, 38.6 nm (71.4 km) W. Retrieved 2021/08/02 12:22 UTC (46 minutes ago):

TAF KMLI 021120Z 0212/0312 03004KT P6SM SCT050 FM030900 VRB02KT 6SM BR FEW080